createdAt,value
2018-03-14T00:01:22.348Z,5.80
2018-03-14T00:03:50.009Z,5.30
2018-03-14T00:06:17.688Z,5.30
2018-03-14T00:08:45.360Z,5.10
2018-03-14T00:11:13.041Z,5.03
2018-03-14T00:13:40.724Z,4.90
2018-03-14T00:16:11.987Z,5.50
2018-03-14T00:18:39.681Z,4.97
2018-03-14T00:21:07.381Z,5.47
2018-03-14T00:23:35.040Z,5.67
2018-03-14T00:26:02.749Z,6.00
2018-03-14T00:28:30.432Z,6.47
2018-03-14T00:30:58.097Z,6.50
2018-03-14T00:33:25.799Z,6.40
2018-03-14T00:35:53.585Z,6.30
2018-03-14T00:38:21.258Z,6.40
2018-03-14T00:40:48.930Z,6.20
2018-03-14T00:43:16.593Z,6.00
2018-03-14T00:45:45.460Z,6.47
2018-03-14T00:48:13.126Z,6.10
2018-03-14T00:50:40.795Z,5.40
2018-03-14T00:53:08.472Z,5.73
2018-03-14T00:55:36.183Z,5.00
2018-03-14T00:58:03.855Z,5.57
2018-03-14T01:00:31.555Z,5.90
2018-03-14T01:02:59.215Z,5.80
2018-03-14T01:05:26.898Z,5.90
2018-03-14T01:07:54.582Z,6.17
2018-03-14T01:10:22.243Z,6.20
2018-03-14T01:12:49.941Z,6.37
2018-03-14T01:15:19.320Z,6.37
2018-03-14T01:17:47.009Z,6.57
2018-03-14T01:20:14.674Z,6.13
2018-03-14T01:22:42.340Z,7.30
2018-03-14T01:25:10.029Z,6.00
2018-03-14T01:27:37.731Z,5.73
2018-03-14T01:30:05.443Z,6.80
2018-03-14T01:32:33.146Z,6.77
2018-03-14T01:35:00.859Z,6.50
2018-03-14T01:37:28.509Z,5.87
2018-03-14T01:39:56.271Z,5.23
2018-03-14T01:42:23.949Z,5.67
2018-03-14T01:44:52.586Z,5.03
2018-03-14T01:47:20.261Z,3.43
2018-03-14T01:49:47.952Z,3.43
2018-03-14T01:52:15.540Z,3.67
2018-03-14T01:54:43.238Z,3.23
2018-03-14T01:57:10.914Z,2.87
2018-03-14T01:59:38.593Z,2.70
2018-03-14T02:02:06.286Z,2.30
2018-03-14T02:04:33.955Z,2.90
2018-03-14T02:07:02.480Z,2.53
2018-03-14T02:09:30.089Z,2.67
2018-03-14T02:11:57.778Z,2.77
2018-03-14T02:14:25.457Z,2.90
2018-03-14T02:16:53.119Z,2.97
2018-03-14T02:19:20.802Z,3.67
2018-03-14T02:21:48.528Z,3.83
2018-03-14T02:24:16.196Z,3.77
2018-03-14T02:26:43.876Z,3.67
2018-03-14T02:29:11.552Z,3.40
2018-03-14T02:31:39.204Z,3.23
2018-03-14T02:34:06.872Z,3.87
2018-03-14T02:36:49.834Z,3.00
2018-03-14T02:39:17.465Z,3.43
2018-03-14T02:41:45.143Z,3.50
2018-03-14T02:44:12.809Z,3.40
2018-03-14T02:46:40.503Z,3.13
2018-03-14T02:49:08.165Z,3.20
2018-03-14T02:51:36.570Z,4.40
2018-03-14T02:54:04.222Z,3.57
2018-03-14T02:56:32.786Z,3.23
2018-03-14T02:59:00.456Z,4.07
2018-03-14T03:01:28.914Z,3.90
2018-03-14T03:03:56.559Z,4.00
2018-03-14T03:06:24.224Z,3.23
2018-03-14T03:08:51.788Z,3.27
2018-03-14T03:11:19.432Z,3.17
2018-03-14T03:13:47.078Z,3.23
2018-03-14T03:16:14.729Z,3.43
2018-03-14T03:18:42.411Z,3.17
2018-03-14T03:21:10.080Z,3.40
2018-03-14T03:23:37.751Z,3.33
2018-03-14T03:26:08.857Z,3.17
2018-03-14T03:28:36.551Z,3.13
2018-03-14T03:31:04.147Z,3.40
2018-03-14T03:33:31.823Z,3.77
2018-03-14T03:35:59.471Z,3.50
2018-03-14T03:38:27.129Z,4.10
2018-03-14T03:40:54.787Z,3.50
2018-03-14T03:43:22.463Z,3.37
2018-03-14T03:45:50.127Z,3.60
2018-03-14T03:48:17.781Z,3.93
2018-03-14T03:50:45.426Z,3.10
2018-03-14T03:53:13.085Z,4.10
2018-03-14T03:55:43.696Z,3.00
2018-03-14T03:58:11.347Z,3.50
2018-03-14T04:00:39.050Z,3.80
2018-03-14T04:03:06.681Z,3.10
2018-03-14T04:05:34.323Z,3.43
2018-03-14T04:08:02.090Z,3.17
2018-03-14T04:10:29.760Z,2.93
2018-03-14T04:12:57.356Z,3.17
2018-03-14T04:15:25.045Z,2.80
2018-03-14T04:17:52.616Z,2.60
2018-03-14T04:20:20.267Z,3.37
2018-03-14T04:22:47.935Z,2.97
2018-03-14T04:25:18.741Z,2.70
2018-03-14T04:27:46.314Z,2.60
2018-03-14T04:30:13.996Z,2.47
2018-03-14T04:32:41.656Z,2.87
2018-03-14T04:35:09.319Z,2.50
2018-03-14T04:37:36.975Z,2.87
2018-03-14T04:40:04.660Z,2.90
2018-03-14T04:42:33.077Z,2.93
2018-03-14T04:45:00.748Z,2.70
2018-03-14T04:47:28.396Z,3.03
2018-03-14T04:49:56.052Z,2.80
2018-03-14T04:52:23.683Z,2.83
2018-03-14T04:54:51.360Z,3.00
2018-03-14T04:57:19.000Z,2.60
2018-03-14T04:59:46.618Z,2.70
2018-03-14T05:02:14.278Z,3.10
2018-03-14T05:04:41.927Z,2.87
2018-03-14T05:07:09.576Z,2.70
2018-03-14T05:09:37.209Z,2.80
2018-03-14T05:12:04.874Z,2.67
2018-03-14T05:14:32.529Z,2.80
2018-03-14T05:17:01.202Z,3.03
2018-03-14T05:19:28.869Z,2.93
2018-03-14T05:21:56.539Z,2.90
2018-03-14T05:24:24.190Z,2.53
2018-03-14T05:26:51.759Z,2.60
2018-03-14T05:29:19.421Z,3.13
2018-03-14T05:31:47.085Z,3.10
2018-03-14T05:34:14.968Z,2.50
2018-03-14T05:36:42.619Z,2.87
2018-03-14T05:39:10.284Z,2.93
2018-03-14T05:41:37.958Z,2.67
2018-03-14T05:44:05.567Z,3.17
2018-03-14T05:46:33.437Z,3.30
2018-03-14T05:49:01.080Z,2.67
2018-03-14T05:51:28.771Z,2.60
2018-03-14T05:53:56.443Z,2.40
2018-03-14T05:56:24.091Z,2.80
2018-03-14T05:58:51.777Z,2.77
2018-03-14T06:01:19.422Z,2.30
2018-03-14T06:03:47.086Z,2.90
2018-03-14T06:06:14.732Z,2.87
2018-03-14T06:08:43.208Z,2.90
2018-03-14T06:11:10.892Z,3.30
2018-03-14T06:13:38.523Z,3.03
2018-03-14T06:16:10.331Z,3.00
2018-03-14T06:18:37.999Z,3.00
2018-03-14T06:21:05.630Z,2.90
2018-03-14T06:23:33.301Z,3.00
2018-03-14T06:26:00.957Z,3.40
2018-03-14T06:28:28.612Z,3.30
2018-03-14T06:30:56.248Z,2.93
2018-03-14T06:33:23.913Z,3.23
2018-03-14T06:35:51.550Z,3.70
2018-03-14T06:38:19.137Z,3.40
2018-03-14T06:40:46.760Z,3.40
2018-03-14T06:43:14.450Z,3.40
2018-03-14T06:45:45.650Z,3.43
2018-03-14T06:48:13.369Z,3.40
2018-03-14T06:50:40.975Z,3.27
2018-03-14T06:53:08.537Z,3.23
2018-03-14T06:55:36.195Z,3.73
2018-03-14T06:58:03.949Z,3.50
2018-03-14T07:00:43.285Z,3.67
2018-03-14T07:03:22.572Z,4.10
2018-03-14T07:06:01.993Z,4.10
2018-03-14T07:08:29.663Z,4.37
2018-03-14T07:10:57.332Z,4.73
2018-03-14T07:13:25.002Z,4.50
2018-03-14T07:15:52.661Z,4.10
2018-03-14T07:18:20.339Z,3.87
2018-03-14T07:20:47.998Z,4.27
2018-03-14T07:23:15.674Z,3.73
2018-03-14T07:25:46.533Z,4.23
2018-03-14T07:28:14.202Z,4.50
2018-03-14T07:30:41.899Z,5.20
2018-03-14T07:33:09.490Z,5.10
2018-03-14T07:35:37.165Z,5.03
2018-03-14T07:38:04.966Z,4.07
2018-03-14T07:40:32.612Z,5.00
2018-03-14T07:43:00.242Z,4.30
2018-03-14T07:45:27.912Z,4.97
2018-03-14T07:47:55.584Z,5.60
2018-03-14T07:50:23.237Z,5.00
2018-03-14T07:52:50.871Z,4.70
2018-03-14T07:55:19.459Z,5.63
2018-03-14T07:57:47.095Z,4.63
2018-03-14T08:00:14.736Z,5.37
2018-03-14T08:02:42.413Z,6.37
2018-03-14T08:05:10.076Z,5.10
2018-03-14T08:07:37.768Z,4.67
2018-03-14T08:10:06.189Z,4.90
2018-03-14T08:12:33.865Z,4.57
2018-03-14T08:15:01.523Z,4.47
2018-03-14T08:17:29.959Z,4.60
2018-03-14T08:19:57.547Z,4.63
2018-03-14T08:22:25.222Z,4.80
2018-03-14T08:24:56.996Z,4.93
2018-03-14T08:27:24.651Z,4.37
2018-03-14T08:29:52.348Z,5.10
2018-03-14T08:32:20.038Z,4.90
2018-03-14T08:34:47.674Z,5.00
2018-03-14T08:37:15.389Z,5.20
2018-03-14T08:39:44.264Z,4.70
2018-03-14T08:42:11.907Z,4.77
2018-03-14T08:44:39.580Z,4.63
2018-03-14T08:47:07.235Z,4.40
2018-03-14T08:49:34.910Z,4.10
2018-03-14T08:52:02.586Z,3.87
2018-03-14T08:54:30.295Z,4.00
2018-03-14T08:56:57.961Z,3.60
2018-03-14T08:59:25.594Z,3.23
2018-03-14T09:01:58.153Z,3.67
2018-03-14T09:04:29.560Z,3.57
2018-03-14T09:06:57.340Z,3.30
2018-03-14T09:09:25.214Z,3.40
2018-03-14T09:11:52.989Z,3.53
2018-03-14T09:14:20.718Z,3.27
2018-03-14T09:16:48.356Z,3.60
2018-03-14T09:19:16.765Z,3.73
2018-03-14T09:21:44.360Z,2.93
2018-03-14T09:24:11.960Z,3.43
2018-03-14T09:26:39.686Z,3.23
2018-03-14T09:29:07.385Z,3.20
2018-03-14T09:31:36.000Z,3.27
2018-03-14T09:34:03.568Z,3.13
2018-03-14T09:36:34.856Z,3.17
2018-03-14T09:39:04.370Z,3.40
2018-03-14T09:41:32.586Z,3.30
2018-03-14T09:44:00.414Z,3.60
2018-03-14T09:46:29.620Z,3.53
2018-03-14T09:48:57.280Z,3.20
2018-03-14T09:51:24.976Z,3.10
2018-03-14T09:53:52.616Z,3.00
2018-03-14T09:56:28.697Z,3.10
2018-03-14T09:58:57.138Z,2.70
2018-03-14T10:01:24.809Z,3.07
2018-03-14T10:03:52.477Z,2.47
2018-03-14T10:06:22.176Z,3.00
2018-03-14T10:08:49.838Z,2.30
2018-03-14T10:11:17.573Z,2.60
2018-03-14T10:13:45.256Z,2.60
2018-03-14T10:16:12.929Z,2.17
2018-03-14T10:18:40.595Z,2.40
2018-03-14T10:21:08.247Z,3.10
2018-03-14T10:23:35.880Z,2.50
2018-03-14T10:26:03.609Z,2.47
2018-03-14T10:28:31.225Z,2.80
2018-03-14T10:30:58.920Z,2.40
2018-03-14T10:33:26.595Z,2.80
2018-03-14T10:35:56.745Z,2.60
2018-03-14T10:38:24.395Z,2.47
2018-03-14T10:40:53.801Z,2.37
2018-03-14T10:43:21.390Z,2.10
2018-03-14T10:45:49.056Z,2.63
2018-03-14T10:48:16.703Z,2.00
2018-03-14T10:50:44.358Z,2.23
2018-03-14T10:53:12.039Z,2.30
2018-03-14T10:55:39.721Z,2.13
2018-03-14T10:58:08.311Z,2.50
2018-03-14T11:00:41.605Z,2.20
2018-03-14T11:03:14.773Z,2.20
2018-03-14T11:05:42.436Z,2.63
2018-03-14T11:08:10.133Z,2.50
2018-03-14T11:10:38.736Z,3.17
2018-03-14T11:13:06.573Z,3.20
2018-03-14T11:15:34.279Z,2.70
2018-03-14T11:18:02.712Z,2.70
2018-03-14T11:20:30.384Z,3.10
2018-03-14T11:22:58.040Z,3.17
2018-03-14T11:25:27.618Z,2.50
2018-03-14T11:27:55.286Z,3.20
2018-03-14T11:30:22.941Z,3.03
2018-03-14T11:32:50.591Z,2.70
2018-03-14T11:35:21.190Z,2.80
2018-03-14T11:37:48.995Z,2.50
2018-03-14T11:40:23.551Z,3.03
2018-03-14T11:42:51.189Z,3.10
2018-03-14T11:45:18.868Z,3.00
2018-03-14T11:47:46.588Z,2.60
2018-03-14T11:50:14.316Z,2.70
2018-03-14T11:52:41.983Z,2.47
2018-03-14T11:55:09.652Z,2.53
2018-03-14T11:57:37.336Z,2.97
2018-03-14T12:00:05.034Z,2.60
2018-03-14T12:02:32.675Z,3.03
2018-03-14T12:05:03.805Z,2.70
2018-03-14T12:07:31.438Z,3.73
2018-03-14T12:09:59.119Z,2.70
2018-03-14T12:12:26.826Z,3.40
2018-03-14T12:14:54.494Z,2.83
2018-03-14T12:17:22.140Z,3.20
2018-03-14T12:19:50.539Z,3.47
2018-03-14T12:22:23.730Z,3.30
2018-03-14T12:24:51.373Z,2.90
2018-03-14T12:27:20.439Z,3.03
2018-03-14T12:29:48.137Z,3.27
2018-03-14T12:32:15.819Z,3.20
2018-03-14T12:34:48.008Z,3.70
2018-03-14T12:37:15.677Z,3.10
2018-03-14T12:39:45.245Z,3.60
2018-03-14T12:42:17.476Z,3.20
2018-03-14T12:44:46.219Z,3.23
2018-03-14T12:47:13.876Z,3.40
2018-03-14T12:49:41.598Z,3.03
2018-03-14T12:52:09.418Z,3.50
2018-03-14T12:54:37.209Z,4.40
2018-03-14T12:57:04.933Z,3.30
2018-03-14T12:59:32.697Z,4.23
2018-03-14T13:02:00.358Z,3.60
2018-03-14T13:04:29.264Z,3.40
2018-03-14T13:06:56.865Z,3.30
2018-03-14T13:09:24.565Z,3.33
2018-03-14T13:11:53.042Z,3.77
2018-03-14T13:14:20.736Z,3.60
2018-03-14T13:17:04.401Z,3.53
2018-03-14T13:19:32.487Z,3.80
2018-03-14T13:22:00.735Z,3.60
2018-03-14T13:24:28.433Z,3.97
2018-03-14T13:26:56.087Z,4.00
2018-03-14T13:29:23.756Z,4.20
2018-03-14T13:31:51.543Z,4.57
2018-03-14T13:34:19.970Z,4.37
2018-03-14T13:36:59.678Z,4.47
2018-03-14T13:39:30.836Z,4.10
2018-03-14T13:41:58.583Z,4.13
2018-03-14T13:44:30.804Z,5.00
2018-03-14T14:29:11.853Z,4.80
2018-03-14T14:31:39.453Z,5.10
2018-03-14T14:34:07.151Z,5.13
2018-03-14T14:36:39.570Z,4.67
2018-03-14T14:39:07.249Z,4.97
2018-03-14T14:41:34.966Z,4.23
2018-03-14T14:44:02.531Z,4.33
2018-03-14T14:46:30.162Z,4.77
2018-03-14T14:49:00.198Z,4.60
2018-03-14T14:51:27.768Z,4.80
2018-03-14T14:53:56.151Z,4.87
2018-03-14T14:56:23.777Z,4.60
2018-03-14T14:58:51.389Z,4.90
2018-03-14T15:01:19.140Z,4.83
2018-03-14T15:03:47.667Z,4.83
2018-03-14T15:06:22.018Z,5.20
2018-03-14T15:08:52.446Z,4.87
2018-03-14T15:11:20.976Z,4.83
2018-03-14T15:13:48.699Z,4.67
2018-03-14T15:16:20.208Z,4.53
2018-03-14T15:18:47.844Z,5.20
2018-03-14T15:21:16.282Z,5.60
2018-03-14T15:23:44.021Z,6.27
2018-03-14T15:26:13.039Z,4.70
2018-03-14T15:28:47.767Z,5.10
2018-03-14T15:31:15.540Z,4.93
2018-03-14T15:33:43.279Z,4.90
2018-03-14T15:36:10.991Z,4.90
2018-03-14T15:38:38.624Z,5.40
2018-03-14T15:41:06.277Z,5.60
2018-03-14T15:43:33.940Z,5.60
2018-03-14T15:46:08.383Z,5.27
2018-03-14T15:48:36.106Z,5.57
2018-03-14T15:51:04.096Z,4.77
2018-03-14T15:53:31.849Z,5.20
2018-03-14T15:55:59.524Z,5.37
2018-03-14T15:58:27.155Z,5.00
2018-03-14T16:00:55.627Z,5.00
2018-03-14T16:03:23.835Z,5.63
2018-03-14T16:05:51.943Z,5.33
2018-03-14T16:08:19.626Z,4.47
2018-03-14T16:10:47.262Z,5.60
2018-03-14T16:13:14.916Z,4.87
2018-03-14T16:15:43.536Z,4.83
2018-03-14T16:18:11.271Z,4.77
2018-03-14T16:20:39.136Z,5.30
2018-03-14T16:23:08.146Z,5.07
2018-03-14T16:25:35.836Z,5.03
2018-03-14T16:28:03.968Z,4.40
2018-03-14T16:30:31.567Z,4.93
2018-03-14T16:33:00.477Z,4.73
2018-03-14T16:35:29.989Z,4.97
2018-03-14T16:37:57.626Z,5.13
2018-03-14T16:40:25.304Z,5.17
2018-03-14T16:42:54.451Z,4.80
2018-03-14T16:45:25.206Z,4.80
2018-03-14T16:47:53.617Z,4.63
2018-03-14T16:50:26.677Z,5.10
2018-03-14T16:52:54.331Z,4.57
2018-03-14T16:55:22.055Z,4.87
2018-03-14T16:57:49.735Z,5.13
2018-03-14T17:00:17.312Z,5.23
2018-03-14T17:02:44.888Z,5.20
2018-03-14T17:05:15.609Z,5.07
2018-03-14T17:07:43.221Z,5.13
2018-03-14T17:10:12.260Z,5.03
2018-03-14T17:12:39.846Z,5.30
2018-03-14T17:15:08.070Z,5.50
2018-03-14T17:17:35.751Z,5.73
2018-03-14T17:20:03.501Z,6.20
2018-03-14T17:22:31.373Z,5.70
2018-03-14T17:24:59.542Z,5.70
2018-03-14T17:27:27.271Z,5.30
2018-03-14T17:29:54.932Z,5.83
2018-03-14T17:32:22.582Z,6.10
2018-03-14T17:34:51.221Z,5.47
2018-03-14T17:37:18.923Z,5.73
2018-03-14T17:39:46.580Z,5.37
2018-03-14T17:42:18.489Z,6.17
2018-03-14T17:44:46.206Z,5.77
2018-03-14T17:47:13.902Z,5.33
2018-03-14T17:49:41.541Z,5.63
2018-03-14T17:52:09.104Z,5.70
2018-03-14T17:54:36.728Z,5.67
2018-03-14T17:57:04.326Z,5.20
2018-03-14T17:59:32.005Z,6.13
2018-03-14T18:01:59.673Z,5.47
2018-03-14T18:04:27.416Z,5.97
2018-03-14T18:06:55.065Z,6.17
2018-03-14T18:09:22.959Z,6.03
2018-03-14T18:11:50.642Z,5.90
2018-03-14T18:14:18.329Z,6.37
2018-03-14T18:16:48.252Z,6.00
2018-03-14T18:19:16.811Z,6.37
2018-03-14T18:21:45.261Z,6.20
2018-03-14T18:24:12.918Z,6.43
2018-03-14T18:26:40.583Z,6.10
2018-03-14T18:29:08.308Z,6.53
2018-03-14T18:31:35.954Z,6.20
2018-03-14T18:34:03.649Z,6.90
2018-03-14T18:36:31.355Z,6.43
2018-03-14T18:38:59.034Z,7.60
2018-03-14T18:41:27.526Z,7.57
2018-03-14T18:43:55.209Z,9.00
2018-03-14T18:46:35.412Z,8.13
2018-03-14T18:49:03.082Z,7.60
2018-03-14T18:51:30.746Z,8.23
2018-03-14T18:53:58.388Z,8.43
2018-03-14T18:56:26.055Z,8.73
2018-03-14T18:58:53.796Z,8.67
2018-03-14T19:01:21.471Z,7.33
2018-03-14T19:03:49.140Z,7.90
2018-03-14T19:06:16.819Z,7.10
2018-03-14T19:08:44.670Z,7.87
2018-03-14T19:11:12.445Z,7.97
2018-03-14T19:13:40.111Z,8.67
2018-03-14T19:16:18.357Z,8.40
2018-03-14T19:18:45.961Z,7.73
2018-03-14T19:21:13.680Z,7.57
2018-03-14T19:23:41.596Z,8.50
2018-03-14T19:26:09.285Z,7.80
2018-03-14T19:28:36.956Z,7.70
2018-03-14T19:31:04.616Z,8.27
2018-03-14T19:33:32.959Z,8.00
2018-03-14T19:36:04.947Z,8.33
2018-03-14T19:38:32.539Z,7.90
2018-03-14T19:41:00.988Z,8.57
2018-03-14T19:43:30.588Z,8.43
2018-03-14T19:45:59.110Z,8.00
2018-03-14T19:48:26.748Z,8.13
2018-03-14T19:50:54.411Z,8.53
2018-03-14T19:53:22.079Z,8.27
2018-03-14T19:55:53.090Z,7.80
2018-03-14T19:58:20.766Z,8.40
2018-03-14T20:00:48.408Z,8.33
2018-03-14T20:03:16.080Z,8.47
2018-03-14T20:05:43.799Z,7.73
2018-03-14T20:08:11.473Z,8.30
2018-03-14T20:10:39.355Z,8.00
2018-03-14T20:13:07.034Z,8.53
2018-03-14T20:15:34.702Z,7.70
2018-03-14T20:18:02.386Z,7.17
2018-03-14T20:20:30.822Z,7.57
2018-03-14T20:22:58.475Z,7.43
2018-03-14T20:25:31.309Z,7.23
2018-03-14T20:27:58.968Z,7.30
2018-03-14T20:30:26.585Z,7.60
2018-03-14T20:32:54.217Z,6.70
2018-03-14T20:35:22.519Z,8.00
2018-03-14T20:37:51.457Z,7.03
2018-03-14T20:40:19.106Z,6.73
2018-03-14T20:42:46.883Z,7.53
2018-03-14T20:45:14.453Z,8.17
2018-03-14T20:47:42.959Z,7.43
2018-03-14T20:50:12.449Z,8.00
2018-03-14T20:52:40.127Z,7.77
2018-03-14T20:55:12.324Z,8.10
2018-03-14T20:57:39.919Z,8.93
2018-03-14T21:00:07.646Z,9.93
2018-03-14T21:02:35.321Z,8.63
2018-03-14T21:05:02.958Z,8.40
2018-03-14T21:07:30.628Z,8.93
2018-03-14T21:09:58.290Z,8.50
2018-03-14T21:12:25.955Z,8.97
2018-03-14T21:14:54.013Z,9.90
2018-03-14T21:17:21.679Z,9.03
2018-03-14T21:19:49.341Z,9.23
2018-03-14T21:22:17.806Z,9.07
2018-03-14T21:24:46.597Z,9.27
2018-03-14T21:27:14.560Z,9.40
2018-03-14T21:29:42.276Z,9.63
2018-03-14T21:32:11.345Z,9.87
2018-03-14T21:34:39.510Z,10.07
2018-03-14T21:37:07.156Z,9.47
2018-03-14T21:39:35.151Z,9.47
2018-03-14T21:42:02.820Z,9.93
2018-03-14T21:44:30.474Z,9.97
2018-03-14T21:47:01.775Z,9.30
2018-03-14T21:49:29.359Z,10.03
2018-03-14T21:51:57.024Z,10.33
2018-03-14T21:54:24.689Z,10.10
2018-03-14T21:56:52.333Z,10.27
2018-03-14T21:59:20.001Z,10.50
2018-03-14T22:01:47.673Z,10.30
2018-03-14T22:04:15.340Z,10.60
2018-03-14T22:06:43.745Z,10.20
2018-03-14T22:09:11.399Z,9.83
2018-03-14T22:11:39.600Z,10.30
2018-03-14T22:14:08.025Z,10.27
2018-03-14T22:16:38.544Z,10.90
2018-03-14T22:19:06.202Z,11.57
2018-03-14T22:21:34.605Z,10.77
2018-03-14T22:24:03.190Z,10.70
2018-03-14T22:26:30.963Z,10.27
2018-03-14T22:28:59.300Z,11.10
2018-03-14T22:34:30.180Z,10.30
2018-03-14T22:36:57.935Z,11.03
2018-03-14T22:39:25.589Z,10.27
2018-03-14T22:41:53.863Z,9.90
2018-03-14T22:44:21.542Z,9.20
2018-03-14T22:46:49.255Z,9.67
2018-03-14T22:49:16.831Z,11.13
2018-03-14T22:51:44.408Z,9.93
2018-03-14T22:54:12.100Z,9.53
2018-03-14T22:56:41.413Z,9.97
2018-03-14T22:59:09.179Z,10.27
2018-03-14T23:01:37.193Z,10.67
2018-03-14T23:04:04.896Z,9.93
2018-03-14T23:06:32.584Z,9.70
2018-03-14T23:09:00.933Z,10.17
2018-03-14T23:11:29.168Z,10.07
2018-03-14T23:13:56.851Z,9.90
2018-03-14T23:16:24.531Z,9.90
2018-03-14T23:18:53.329Z,9.77
2018-03-14T23:21:22.340Z,10.60
2018-03-14T23:23:50.030Z,9.77
2018-03-14T23:26:19.681Z,9.43
2018-03-14T23:28:50.397Z,8.90
2018-03-14T23:31:18.054Z,10.07
2018-03-14T23:33:46.367Z,9.10
2018-03-14T23:36:14.191Z,9.67
2018-03-14T23:38:43.637Z,9.87
2018-03-14T23:41:12.191Z,8.80
2018-03-14T23:43:40.325Z,9.63
2018-03-14T23:46:09.964Z,9.60
2018-03-14T23:48:38.053Z,8.67
2018-03-14T23:51:05.725Z,8.90
2018-03-14T23:53:33.395Z,9.30
2018-03-14T23:56:01.953Z,8.73
2018-03-14T23:58:29.551Z,8.93
